Time;durP1;ratioP1;P1;durP2;ratioP2;P2;SDS_P1;SDS_P2;PMS_P1;PMS_P2;Temp;Humidity;BMP_temperature;BMP_pressure;BME280_temperature;BME280_humidity;BME280_pressure;Samples;Min_cycle;Max_cycle;Signal;HPM_P1;HPM_P2
2023/08/10 00:00:16;;;;;;;2.78;1.92;;;13.40;99.90;;;;;;4993169;28;20038;-86
2023/08/10 00:02:43;;;;;;;4.93;2.40;;;13.40;99.90;;;;;;4994261;28;20038;-86
2023/08/10 00:05:12;;;;;;;6.65;2.47;;;13.40;99.90;;;;;;5008780;28;20479;-86
2023/08/10 00:07:38;;;;;;;5.35;2.60;;;13.40;99.90;;;;;;4993738;28;20042;-86
2023/08/10 00:10:05;;;;;;;9.55;3.15;;;13.40;99.90;;;;;;5009216;28;20040;-86
2023/08/10 00:12:30;;;;;;;3.72;2.63;;;13.40;99.90;;;;;;4976449;28;20456;-86
2023/08/10 00:14:56;;;;;;;7.07;2.47;;;13.40;99.90;;;;;;4994711;28;20100;-86
2023/08/10 00:17:22;;;;;;;3.80;2.33;;;13.40;99.90;;;;;;5000128;28;20030;-86
2023/08/10 00:19:48;;;;;;;5.15;2.05;;;13.40;99.90;;;;;;4994361;28;20113;-86
2023/08/10 00:22:14;;;;;;;7.90;2.80;;;13.40;99.90;;;;;;4961388;28;20120;-86
2023/08/10 00:24:40;;;;;;;8.07;2.85;;;13.30;99.90;;;;;;5010538;28;20442;-86
2023/08/10 00:27:06;;;;;;;4.65;2.60;;;13.30;99.90;;;;;;4992969;28;20046;-86
2023/08/10 00:29:32;;;;;;;5.68;1.90;;;13.30;99.90;;;;;;4976451;28;20112;-86
2023/08/10 00:31:58;;;;;;;6.88;2.83;;;13.30;99.90;;;;;;4993730;28;20120;-86
2023/08/10 00:34:24;;;;;;;8.55;2.60;;;13.20;99.90;;;;;;4977705;28;20165;-86
2023/08/10 00:36:49;;;;;;;7.47;2.80;;;13.20;99.90;;;;;;5005536;28;20053;-86
2023/08/10 00:39:17;;;;;;;9.60;2.60;;;13.20;99.90;;;;;;5008305;28;20499;-86
2023/08/10 00:41:43;;;;;;;6.75;2.53;;;13.10;99.90;;;;;;4995743;28;20121;-86
2023/08/10 00:44:09;;;;;;;5.40;2.47;;;13.00;99.90;;;;;;4997237;28;20044;-86
2023/08/10 00:46:35;;;;;;;4.75;2.20;;;13.10;99.90;;;;;;5013653;28;20045;-86
2023/08/10 00:49:01;;;;;;;9.13;3.10;;;13.00;99.90;;;;;;4997437;28;20153;-86
2023/08/10 00:51:27;;;;;;;6.75;2.35;;;13.00;99.90;;;;;;5012198;28;20033;-86
2023/08/10 00:53:53;;;;;;;6.05;2.53;;;12.90;99.90;;;;;;5029504;28;20049;-86
2023/08/10 00:56:19;;;;;;;7.60;2.83;;;12.90;99.90;;;;;;4997400;28;20551;-86
2023/08/10 00:58:45;;;;;;;3.75;2.35;;;12.90;99.90;;;;;;5013596;28;20049;-86
2023/08/10 01:01:11;;;;;;;6.28;2.50;;;12.80;99.90;;;;;;5011720;28;20117;-86
2023/08/10 01:03:36;;;;;;;9.32;2.70;;;12.80;99.90;;;;;;5014219;28;20038;-85
2023/08/10 01:06:18;;;;;;;8.70;2.88;;;12.80;99.90;;;;;;4996376;28;20475;-85
2023/08/10 01:09:17;;;;;;;8.70;2.92;;;12.70;99.90;;;;;;4999978;28;20484;-85
2023/08/10 01:12:01;;;;;;;8.65;2.45;;;12.70;99.90;;;;;;4991421;28;20061;-85
2023/08/10 01:14:37;;;;;;;5.78;2.47;;;12.70;99.90;;;;;;5013653;28;20038;-85
2023/08/10 01:17:06;;;;;;;7.38;2.67;;;12.70;99.90;;;;;;5028898;28;20061;-85
2023/08/10 01:19:38;;;;;;;6.65;3.33;;;12.70;99.90;;;;;;4996419;28;20037;-85
2023/08/10 01:22:29;;;;;;;6.63;2.53;;;12.70;99.90;;;;;;4996020;28;20045;-85
2023/08/10 01:25:06;;;;;;;6.68;2.65;;;12.70;99.90;;;;;;5012357;28;20046;-85
2023/08/10 01:27:34;;;;;;;4.93;3.00;;;12.70;99.90;;;;;;5010861;28;20044;-85
2023/08/10 01:30:00;;;;;;;4.32;2.53;;;12.70;99.90;;;;;;4996410;28;20069;-85
2023/08/10 01:32:29;;;;;;;10.48;3.00;;;12.70;99.90;;;;;;4980616;28;20442;-85
2023/08/10 01:34:56;;;;;;;6.10;2.20;;;12.80;99.90;;;;;;5013654;28;20499;-85
2023/08/10 01:37:22;;;;;;;4.88;2.53;;;12.80;99.90;;;;;;4993900;28;20044;-85
2023/08/10 01:39:48;;;;;;;6.10;3.60;;;12.80;99.90;;;;;;4995691;28;20038;-85
2023/08/10 01:42:14;;;;;;;6.82;2.33;;;12.90;99.90;;;;;;5003354;28;20064;-85
2023/08/10 01:44:40;;;;;;;6.25;2.90;;;12.90;99.90;;;;;;5013491;28;20495;-85
2023/08/10 01:47:15;;;;;;;7.55;2.90;;;12.90;99.90;;;;;;5026853;28;20060;-85
2023/08/10 01:49:42;;;;;;;4.63;2.55;;;12.90;99.90;;;;;;5004832;28;20130;-85
2023/08/10 01:52:11;;;;;;;7.70;3.05;;;12.90;99.90;;;;;;5011758;28;20042;-85
2023/08/10 01:54:39;;;;;;;5.43;2.53;;;13.00;99.90;;;;;;4990556;28;20129;-85
2023/08/10 01:57:05;;;;;;;8.05;2.72;;;13.00;99.90;;;;;;5028673;28;20034;-85
2023/08/10 01:59:31;;;;;;;5.43;2.70;;;13.00;99.90;;;;;;4992265;28;20038;-85
2023/08/10 02:01:57;;;;;;;4.07;2.53;;;13.00;99.90;;;;;;4997912;28;20486;-85
2023/08/10 02:04:23;;;;;;;9.30;3.03;;;13.00;99.90;;;;;;4986083;28;20099;-85
2023/08/10 02:06:49;;;;;;;7.45;2.60;;;13.00;99.90;;;;;;5010220;28;20042;-85
2023/08/10 02:09:14;;;;;;;6.55;2.67;;;13.00;99.90;;;;;;4987461;28;20038;-85
2023/08/10 02:11:40;;;;;;;5.07;2.80;;;13.00;99.90;;;;;;5011446;28;20173;-85
2023/08/10 02:14:06;;;;;;;9.25;2.90;;;13.00;99.90;;;;;;5012246;28;20033;-85
2023/08/10 02:16:31;;;;;;;5.53;2.72;;;13.00;99.90;;;;;;4995374;28;20037;-84
2023/08/10 02:18:57;;;;;;;8.75;2.83;;;13.00;99.90;;;;;;5012502;28;20145;-84
2023/08/10 02:21:23;;;;;;;6.53;3.08;;;13.00;99.90;;;;;;4978334;28;20096;-84
2023/08/10 02:23:50;;;;;;;6.38;2.78;;;13.00;99.90;;;;;;5012077;28;20045;-84
2023/08/10 02:26:16;;;;;;;5.68;2.60;;;13.00;99.90;;;;;;4995843;28;20042;-84
2023/08/10 02:28:42;;;;;;;6.13;2.67;;;13.00;99.90;;;;;;4995734;28;20077;-84
2023/08/10 02:31:08;;;;;;;6.72;2.75;;;13.00;99.90;;;;;;5004699;28;20124;-85
2023/08/10 02:33:34;;;;;;;4.53;2.53;;;13.00;99.90;;;;;;4963266;28;20096;-84
2023/08/10 02:35:59;;;;;;;9.00;2.70;;;13.00;99.90;;;;;;5012379;28;20072;-84
2023/08/10 02:38:25;;;;;;;9.65;2.70;;;13.00;99.90;;;;;;5001948;28;20042;-84
2023/08/10 02:40:51;;;;;;;5.20;2.70;;;13.00;99.90;;;;;;5010776;28;20125;-83
2023/08/10 02:43:16;;;;;;;7.75;2.80;;;13.00;99.90;;;;;;4995306;28;20121;-84
2023/08/10 02:45:42;;;;;;;4.40;2.60;;;13.00;99.90;;;;;;4978908;28;20100;-84
2023/08/10 02:48:08;;;;;;;4.35;2.38;;;12.90;99.90;;;;;;4979350;28;20491;-84
2023/08/10 02:50:33;;;;;;;9.95;3.10;;;12.90;99.90;;;;;;4989655;28;20041;-84
2023/08/10 02:52:59;;;;;;;7.10;3.40;;;12.90;99.90;;;;;;4972997;28;20512;-85
2023/08/10 02:55:25;;;;;;;6.85;3.10;;;12.80;99.90;;;;;;4979992;28;20054;-84
2023/08/10 02:57:50;;;;;;;8.10;2.95;;;12.80;99.90;;;;;;4995250;28;20041;-85
2023/08/10 03:00:17;;;;;;;7.78;2.90;;;12.80;99.90;;;;;;4979011;28;20438;-85
2023/08/10 03:02:43;;;;;;;7.80;3.47;;;12.80;99.90;;;;;;4959256;28;20042;-85
2023/08/10 03:05:11;;;;;;;6.10;3.50;;;12.70;99.90;;;;;;4987330;28;20038;-85
2023/08/10 03:07:36;;;;;;;5.13;3.80;;;12.70;99.90;;;;;;4993377;28;20056;-84
2023/08/10 03:10:03;;;;;;;4.65;3.30;;;12.70;99.90;;;;;;4977389;28;20560;-85
2023/08/10 03:12:29;;;;;;;6.78;3.38;;;12.70;99.90;;;;;;5011220;28;20053;-84
2023/08/10 03:14:54;;;;;;;11.77;3.53;;;12.70;99.90;;;;;;4994611;28;20034;-84
2023/08/10 03:17:20;;;;;;;9.10;3.88;;;12.70;99.90;;;;;;5011374;28;20073;-84
2023/08/10 03:19:47;;;;;;;7.13;3.35;;;12.70;99.90;;;;;;5010332;28;20045;-84
2023/08/10 03:22:13;;;;;;;5.80;3.47;;;12.70;99.90;;;;;;5008628;28;20042;-86
2023/08/10 03:24:39;;;;;;;6.72;3.47;;;12.70;99.90;;;;;;4978996;28;20175;-86
2023/08/10 03:27:05;;;;;;;7.38;3.25;;;12.70;99.90;;;;;;5010977;28;20494;-86
2023/08/10 03:29:30;;;;;;;7.40;4.30;;;12.70;99.90;;;;;;5011156;28;20538;-86
2023/08/10 03:31:56;;;;;;;18.20;3.95;;;12.70;99.90;;;;;;5000025;28;20038;-86
2023/08/10 03:34:22;;;;;;;15.55;3.67;;;12.80;99.90;;;;;;5010968;28;20475;-86
2023/08/10 03:36:47;;;;;;;4.80;3.03;;;12.80;99.90;;;;;;5010035;28;20491;-86
2023/08/10 03:39:13;;;;;;;7.60;3.20;;;12.80;99.90;;;;;;5010609;28;20042;-86
2023/08/10 03:41:38;;;;;;;9.20;3.25;;;12.80;99.90;;;;;;5010257;28;20030;-86
2023/08/10 03:44:04;;;;;;;10.75;3.60;;;12.80;99.90;;;;;;4994669;28;20384;-86
2023/08/10 03:46:30;;;;;;;8.10;3.15;;;12.80;99.90;;;;;;4988361;28;20065;-86
2023/08/10 03:48:56;;;;;;;9.80;4.35;;;12.80;99.90;;;;;;4977100;28;20034;-85
2023/08/10 03:51:21;;;;;;;7.78;3.88;;;12.80;99.90;;;;;;4977972;28;20506;-85
2023/08/10 03:53:47;;;;;;;8.60;4.07;;;12.80;99.90;;;;;;5010181;28;20042;-85
2023/08/10 03:56:13;;;;;;;6.15;3.30;;;12.80;99.90;;;;;;4964993;28;20057;-85
2023/08/10 03:58:38;;;;;;;9.10;4.03;;;12.80;99.90;;;;;;4993280;28;20124;-85
2023/08/10 04:01:06;;;;;;;10.57;3.40;;;12.80;99.90;;;;;;4978611;28;20049;-85
2023/08/10 04:03:35;;;;;;;6.43;3.80;;;12.90;99.90;;;;;;5009588;28;20108;-84
2023/08/10 04:06:01;;;;;;;6.70;3.40;;;12.90;99.90;;;;;;5005808;28;20547;-84
2023/08/10 04:08:27;;;;;;;6.18;3.30;;;12.90;99.90;;;;;;5009794;28;20125;-84
2023/08/10 04:10:52;;;;;;;11.35;3.42;;;12.90;99.90;;;;;;4993358;28;20100;-84
2023/08/10 04:13:18;;;;;;;6.25;2.90;;;12.90;99.90;;;;;;4978283;28;20129;-84
2023/08/10 04:15:44;;;;;;;8.30;3.60;;;12.90;99.90;;;;;;5006574;28;20053;-84
2023/08/10 04:18:09;;;;;;;4.82;3.00;;;12.90;99.90;;;;;;4991387;28;20069;-84
2023/08/10 04:20:35;;;;;;;5.50;3.22;;;12.90;99.90;;;;;;5010808;28;20455;-84
2023/08/10 04:23:01;;;;;;;6.80;3.75;;;12.90;99.90;;;;;;4981218;28;20057;-84
2023/08/10 04:25:27;;;;;;;4.82;3.08;;;12.90;99.90;;;;;;5009624;28;20073;-84
2023/08/10 04:27:53;;;;;;;8.65;3.70;;;13.00;99.90;;;;;;4978234;28;20069;-84
2023/08/10 04:30:19;;;;;;;3.92;2.97;;;12.90;99.90;;;;;;5009067;28;20096;-84
2023/08/10 04:32:44;;;;;;;5.97;3.35;;;13.00;99.90;;;;;;4993906;28;20042;-84
2023/08/10 04:35:11;;;;;;;10.48;3.70;;;13.00;99.90;;;;;;5008936;28;20041;-84
2023/08/10 04:37:37;;;;;;;7.20;3.72;;;13.00;99.90;;;;;;4994430;28;20065;-84
2023/08/10 04:40:09;;;;;;;7.45;3.35;;;13.00;99.90;;;;;;4993287;28;20069;-84
2023/08/10 04:42:38;;;;;;;8.43;3.40;;;13.00;99.90;;;;;;4993501;28;20133;-84
2023/08/10 04:45:05;;;;;;;6.43;3.13;;;13.10;99.90;;;;;;4993447;28;20108;-84
2023/08/10 04:47:31;;;;;;;8.02;3.20;;;13.10;99.90;;;;;;4977834;28;20065;-84
2023/08/10 04:49:56;;;;;;;5.90;3.30;;;13.10;99.90;;;;;;5009654;28;20038;-84
2023/08/10 04:52:22;;;;;;;5.88;3.13;;;13.10;99.90;;;;;;4961378;28;20194;-84
2023/08/10 04:54:48;;;;;;;6.38;3.38;;;13.10;99.90;;;;;;5030788;28;20129;-84
2023/08/10 04:57:13;;;;;;;6.43;3.40;;;13.20;99.90;;;;;;5011651;28;20128;-84
2023/08/10 04:59:39;;;;;;;9.60;3.20;;;13.20;99.90;;;;;;5012918;28;20097;-84
2023/08/10 05:02:05;;;;;;;8.48;3.15;;;13.20;99.90;;;;;;5022181;28;20121;-84
2023/08/10 05:04:31;;;;;;;10.68;4.32;;;13.20;99.90;;;;;;4981822;28;20479;-84
2023/08/10 05:06:56;;;;;;;5.18;3.42;;;13.20;99.90;;;;;;5006948;28;20109;-84
2023/08/10 05:09:23;;;;;;;5.22;3.03;;;13.20;99.90;;;;;;4973007;28;20116;-85
2023/08/10 05:11:48;;;;;;;5.93;3.05;;;13.30;99.90;;;;;;5005723;28;20118;-85
2023/08/10 05:14:14;;;;;;;7.53;3.55;;;13.30;99.90;;;;;;4988486;28;20152;-85
2023/08/10 05:16:40;;;;;;;7.05;3.60;;;13.30;99.90;;;;;;4975190;28;20046;-84
2023/08/10 05:19:05;;;;;;;6.45;3.10;;;13.40;99.90;;;;;;4974127;28;20069;-85
2023/08/10 05:21:31;;;;;;;9.77;3.20;;;13.40;99.90;;;;;;4990861;28;20052;-85
2023/08/10 05:23:57;;;;;;;5.95;3.20;;;13.40;99.90;;;;;;4974267;28;20053;-86
2023/08/10 05:26:23;;;;;;;7.10;3.72;;;13.40;99.90;;;;;;4990506;28;20037;-85
2023/08/10 05:28:48;;;;;;;5.47;3.08;;;13.50;99.90;;;;;;5009632;28;20041;-85
2023/08/10 05:31:15;;;;;;;4.93;3.05;;;13.50;99.90;;;;;;4979580;28;20413;-85
2023/08/10 05:33:41;;;;;;;9.43;3.35;;;13.60;99.90;;;;;;5011181;28;20049;-85
2023/08/10 05:36:07;;;;;;;8.85;3.30;;;13.60;99.90;;;;;;4994506;28;20065;-86
2023/08/10 05:38:33;;;;;;;4.15;3.15;;;13.60;99.90;;;;;;4994701;28;20088;-86
2023/08/10 05:40:59;;;;;;;5.72;2.92;;;13.70;99.90;;;;;;4992280;28;20186;-85
2023/08/10 05:43:24;;;;;;;11.70;3.17;;;13.70;99.90;;;;;;4977166;28;20038;-86
2023/08/10 05:45:50;;;;;;;6.57;3.13;;;13.80;99.90;;;;;;4978488;28;20092;-86
2023/08/10 05:48:16;;;;;;;6.93;3.55;;;13.80;99.90;;;;;;4977540;28;20046;-86
2023/08/10 05:50:41;;;;;;;7.18;2.85;;;13.90;99.90;;;;;;4990235;28;20113;-86
2023/08/10 05:53:07;;;;;;;5.78;2.97;;;13.90;99.90;;;;;;5009281;28;20173;-86
2023/08/10 05:55:34;;;;;;;7.07;3.17;;;13.90;99.90;;;;;;4994147;28;20092;-85
2023/08/10 05:58:00;;;;;;;6.90;3.28;;;14.00;99.90;;;;;;5007424;28;20045;-85
2023/08/10 06:00:27;;;;;;;7.45;3.40;;;14.00;99.90;;;;;;4977913;28;20062;-85
2023/08/10 06:02:53;;;;;;;5.50;2.97;;;14.10;99.90;;;;;;4989757;28;20519;-86
2023/08/10 06:05:18;;;;;;;7.65;3.38;;;14.10;99.90;;;;;;5008629;28;20049;-86
2023/08/10 06:07:47;;;;;;;6.88;3.40;;;14.20;99.90;;;;;;4960667;28;20042;-86
2023/08/10 06:10:17;;;;;;;4.00;2.83;;;14.20;99.90;;;;;;4976080;28;20044;-85
2023/08/10 06:12:42;;;;;;;4.22;2.58;;;14.30;99.90;;;;;;5010525;28;20073;-85
2023/08/10 06:15:11;;;;;;;3.65;2.47;;;14.30;99.90;;;;;;5008632;28;20589;-85
2023/08/10 06:17:38;;;;;;;5.63;2.63;;;14.30;99.90;;;;;;5005439;28;20490;-85
2023/08/10 06:20:09;;;;;;;6.72;3.30;;;14.40;99.90;;;;;;5005982;28;20399;-86
2023/08/10 06:22:36;;;;;;;5.93;2.60;;;14.40;99.90;;;;;;5007450;28;20171;-85
2023/08/10 06:25:02;;;;;;;14.55;3.78;;;14.50;99.90;;;;;;4991876;28;20038;-85
2023/08/10 06:27:28;;;;;;;3.85;2.30;;;14.50;99.90;;;;;;4977761;28;20065;-84
2023/08/10 06:29:53;;;;;;;5.63;2.40;;;14.60;99.90;;;;;;4992932;28;20491;-84
2023/08/10 06:32:19;;;;;;;9.63;2.80;;;14.60;99.90;;;;;;4992512;28;20513;-86
2023/08/10 06:34:45;;;;;;;6.90;3.25;;;14.50;99.90;;;;;;4991911;28;20534;-86
2023/08/10 06:37:12;;;;;;;6.55;2.50;;;14.70;99.90;;;;;;4989073;28;20519;-86
2023/08/10 06:39:38;;;;;;;7.10;2.65;;;14.70;99.90;;;;;;4991328;28;20091;-86
2023/08/10 06:42:03;;;;;;;7.25;3.25;;;14.70;99.90;;;;;;4992131;28;21400;-86
2023/08/10 06:44:29;;;;;;;4.28;2.05;;;14.70;99.90;;;;;;4975744;28;20041;-85
2023/08/10 06:46:55;;;;;;;6.07;2.45;;;14.80;99.90;;;;;;4958486;28;20046;-86
2023/08/10 06:49:21;;;;;;;5.05;2.33;;;14.80;99.90;;;;;;4990957;28;20057;-85
2023/08/10 06:51:50;;;;;;;5.32;2.22;;;14.90;99.90;;;;;;4991272;28;20080;-85
2023/08/10 06:54:15;;;;;;;6.90;2.72;;;14.90;99.90;;;;;;5006526;28;20115;-85
2023/08/10 06:56:41;;;;;;;8.68;2.78;;;15.10;99.90;;;;;;4975833;28;20499;-85
2023/08/10 06:59:07;;;;;;;6.32;2.63;;;15.20;99.90;;;;;;5007107;28;20053;-85
2023/08/10 07:01:33;;;;;;;3.50;1.90;;;15.20;99.90;;;;;;4958671;28;20112;-86
2023/08/10 07:03:59;;;;;;;4.57;1.85;;;15.20;99.90;;;;;;5006910;28;20494;-85
2023/08/10 07:06:26;;;;;;;6.45;2.40;;;15.30;99.90;;;;;;4990731;28;20049;-86
2023/08/10 07:08:52;;;;;;;5.00;2.40;;;15.40;99.90;;;;;;4990073;28;20399;-85
2023/08/10 07:11:21;;;;;;;9.23;2.75;;;15.60;99.90;;;;;;4990524;28;20038;-86
2023/08/10 07:13:48;;;;;;;4.55;2.30;;;15.70;99.90;;;;;;4990590;28;20104;-86
2023/08/10 07:16:15;;;;;;;4.60;1.70;;;15.80;99.90;;;;;;4989278;28;20077;-86
2023/08/10 07:18:41;;;;;;;6.35;2.00;;;16.10;99.90;;;;;;5022215;28;20042;-86
2023/08/10 07:21:07;;;;;;;6.57;1.70;;;16.20;99.90;;;;;;4989467;28;20034;-86
2023/08/10 07:23:33;;;;;;;2.88;1.80;;;16.40;99.90;;;;;;4978642;28;20056;-85
2023/08/10 07:25:58;;;;;;;6.63;1.65;;;16.50;99.90;;;;;;4968431;28;20070;-86
2023/08/10 07:28:25;;;;;;;3.53;2.03;;;16.50;99.90;;;;;;4974192;28;20038;-86
2023/08/10 07:30:51;;;;;;;4.30;1.85;;;16.60;99.90;;;;;;4973631;28;20507;-85
2023/08/10 07:33:17;;;;;;;4.65;1.70;;;16.80;99.90;;;;;;4968407;28;20045;-86
2023/08/10 07:35:44;;;;;;;4.20;1.70;;;16.80;99.90;;;;;;4968052;28;20042;-85
2023/08/10 07:38:11;;;;;;;5.72;1.60;;;17.00;99.90;;;;;;4977543;28;20514;-84
2023/08/10 07:40:37;;;;;;;3.75;1.65;;;17.10;99.90;;;;;;5005580;28;20037;-84
2023/08/10 07:43:02;;;;;;;5.63;1.42;;;17.10;99.90;;;;;;4993514;28;20096;-84
2023/08/10 07:45:28;;;;;;;2.45;1.27;;;17.10;99.90;;;;;;4976209;28;20050;-84
2023/08/10 07:47:54;;;;;;;2.83;1.15;;;17.30;99.90;;;;;;5010925;28;20037;-84
2023/08/10 07:50:19;;;;;;;6.45;1.25;;;17.40;99.90;;;;;;4977637;28;20168;-84
2023/08/10 07:52:45;;;;;;;4.75;1.42;;;17.50;99.90;;;;;;5009115;28;20049;-83
2023/08/10 07:55:13;;;;;;;5.95;1.55;;;17.60;99.90;;;;;;5010153;28;20418;-83
2023/08/10 07:57:39;;;;;;;5.15;1.60;;;17.60;99.90;;;;;;5010392;28;20038;-83
2023/08/10 08:00:06;;;;;;;3.45;1.77;;;17.70;99.90;;;;;;5011209;28;20549;-83
2023/08/10 08:02:35;;;;;;;2.15;1.50;;;17.80;99.90;;;;;;5010486;28;20125;-83
2023/08/10 08:05:00;;;;;;;2.60;1.30;;;17.90;99.90;;;;;;4989104;28;20041;-84
2023/08/10 08:07:26;;;;;;;3.45;1.48;;;17.90;99.90;;;;;;4988530;28;20518;-83
2023/08/10 08:09:52;;;;;;;4.55;1.70;;;18.10;99.90;;;;;;5009143;28;20046;-84
2023/08/10 08:12:18;;;;;;;4.03;1.48;;;18.10;99.90;;;;;;5009782;28;20037;-84
2023/08/10 08:14:44;;;;;;;5.07;1.58;;;18.20;99.90;;;;;;4994558;28;20582;-84
2023/08/10 08:17:10;;;;;;;5.45;1.58;;;18.30;99.90;;;;;;5010982;28;20121;-83
2023/08/10 08:19:36;;;;;;;3.85;1.50;;;18.50;99.90;;;;;;5007435;28;20042;-84
2023/08/10 08:22:05;;;;;;;5.35;2.20;;;18.60;99.90;;;;;;4993347;28;21125;-84
2023/08/10 08:24:30;;;;;;;3.80;1.50;;;18.60;99.90;;;;;;5011621;28;20043;-83
2023/08/10 08:26:56;;;;;;;3.10;1.70;;;18.60;99.90;;;;;;4993657;28;20041;-84
2023/08/10 08:29:23;;;;;;;3.60;1.40;;;18.60;99.90;;;;;;4995618;28;20383;-83
2023/08/10 08:31:48;;;;;;;2.60;1.38;;;18.70;99.90;;;;;;4978244;28;20087;-83
2023/08/10 08:34:15;;;;;;;2.95;1.33;;;18.80;99.90;;;;;;5024049;28;20042;-84
2023/08/10 08:36:41;;;;;;;4.00;1.42;;;19.00;99.90;;;;;;4978386;28;20438;-83
2023/08/10 08:39:08;;;;;;;4.05;1.95;;;19.10;99.90;;;;;;4989136;28;20492;-84
2023/08/10 08:41:36;;;;;;;5.93;1.83;;;19.10;99.90;;;;;;5004104;28;20042;-84
2023/08/10 08:44:07;;;;;;;1.65;1.20;;;18.90;99.90;;;;;;4988524;28;20080;-83
2023/08/10 08:46:35;;;;;;;1.73;1.20;;;18.80;99.90;;;;;;5027414;28;20137;-83
2023/08/10 08:49:02;;;;;;;4.43;1.27;;;18.70;99.90;;;;;;4993208;28;20063;-83
2023/08/10 08:51:28;;;;;;;4.40;1.50;;;18.60;99.90;;;;;;4993813;28;20038;-83
2023/08/10 08:53:55;;;;;;;3.30;1.48;;;18.50;99.90;;;;;;5010348;28;20053;-83
2023/08/10 08:56:21;;;;;;;5.15;1.58;;;18.50;99.90;;;;;;4994247;28;20133;-83
2023/08/10 08:58:47;;;;;;;7.40;1.73;;;18.50;99.90;;;;;;5006237;28;20558;-83
2023/08/10 09:01:13;;;;;;;5.80;1.40;;;18.40;99.90;;;;;;5027721;28;20034;-83
2023/08/10 09:03:39;;;;;;;4.95;1.52;;;18.40;99.90;;;;;;5014172;28;20080;-83
2023/08/10 09:06:05;;;;;;;5.05;1.90;;;18.40;99.90;;;;;;5013721;28;20289;-83
2023/08/10 09:08:31;;;;;;;4.63;1.70;;;18.30;99.90;;;;;;5013398;28;20052;-83
2023/08/10 09:10:57;;;;;;;4.78;2.03;;;18.30;99.90;;;;;;4997674;28;20463;-83
2023/08/10 09:13:24;;;;;;;7.32;1.80;;;18.40;99.90;;;;;;4996274;28;20034;-83
2023/08/10 09:16:13;;;;;;;7.32;2.40;;;18.40;99.90;;;;;;5013056;28;20510;-83
2023/08/10 09:18:42;;;;;;;4.35;2.10;;;18.40;99.90;;;;;;4985310;28;20038;-83
2023/08/10 09:21:18;;;;;;;6.45;1.85;;;18.40;99.90;;;;;;5012978;28;20034;-83
2023/08/10 09:23:52;;;;;;;1.90;1.33;;;18.40;99.90;;;;;;5010849;28;20038;-83
2023/08/10 09:26:19;;;;;;;8.45;1.80;;;18.30;99.90;;;;;;5010754;28;20070;-83
2023/08/10 09:28:47;;;;;;;2.33;1.30;;;18.30;99.90;;;;;;5023876;28;20067;-83
2023/08/10 09:31:13;;;;;;;4.03;2.15;;;18.40;99.90;;;;;;4980756;28;21409;-86
2023/08/10 09:33:39;;;;;;;4.45;1.88;;;18.30;99.90;;;;;;4993783;28;20042;-85
2023/08/10 09:36:08;;;;;;;3.58;2.00;;;18.30;99.90;;;;;;4979644;28;21406;-84
2023/08/10 09:38:34;;;;;;;2.58;1.70;;;18.30;99.90;;;;;;4995847;28;20046;-84
2023/08/10 09:41:14;;;;;;;3.92;1.42;;;18.40;99.90;;;;;;4979994;28;20041;-84
2023/08/10 09:43:41;;;;;;;4.13;1.35;;;18.40;99.90;;;;;;5000381;28;20633;-85
2023/08/10 09:46:12;;;;;;;5.55;2.13;;;18.40;99.90;;;;;;4970780;28;20057;-84
2023/08/10 09:48:39;;;;;;;5.53;1.27;;;18.40;99.90;;;;;;4976110;28;20059;-84
2023/08/10 09:51:06;;;;;;;6.90;2.13;;;18.40;99.90;;;;;;4977843;28;20072;-84
2023/08/10 09:53:33;;;;;;;4.95;1.40;;;18.40;99.90;;;;;;4975958;28;20132;-84
2023/08/10 09:55:59;;;;;;;4.93;1.67;;;18.50;99.90;;;;;;4979087;28;20140;-84
2023/08/10 09:58:26;;;;;;;5.20;2.20;;;18.50;99.90;;;;;;4945996;28;20046;-84
2023/08/10 10:00:52;;;;;;;6.45;1.98;;;18.60;99.90;;;;;;4954195;28;20414;-86
2023/08/10 10:03:22;;;;;;;3.45;1.65;;;18.60;99.90;;;;;;4978224;28;20045;-86
2023/08/10 10:05:49;;;;;;;3.65;1.98;;;18.60;99.90;;;;;;4963172;28;20045;-86
2023/08/10 10:08:16;;;;;;;5.47;2.35;;;18.60;99.90;;;;;;4963861;28;20052;-86
2023/08/10 10:10:44;;;;;;;4.47;1.50;;;18.50;99.90;;;;;;4965679;28;20507;-86
2023/08/10 10:13:12;;;;;;;4.75;1.60;;;18.50;99.90;;;;;;4996487;28;20516;-85
2023/08/10 10:15:43;;;;;;;6.72;2.78;;;18.50;99.90;;;;;;4965358;28;20096;-85
2023/08/10 10:18:10;;;;;;;6.03;1.80;;;18.50;99.90;;;;;;4980934;28;20489;-85
2023/08/10 10:20:40;;;;;;;7.53;1.90;;;18.50;99.90;;;;;;4976695;28;20458;-85
2023/08/10 10:23:18;;;;;;;4.20;1.73;;;18.60;99.90;;;;;;4981066;28;20048;-85
2023/08/10 10:26:01;;;;;;;5.90;1.85;;;18.60;99.90;;;;;;4961271;28;20129;-85
2023/08/10 10:28:30;;;;;;;4.03;1.60;;;18.60;99.90;;;;;;4961611;28;20088;-85
2023/08/10 10:31:06;;;;;;;4.18;1.95;;;18.60;99.90;;;;;;4961798;28;20065;-85
2023/08/10 10:33:33;;;;;;;11.13;1.80;;;18.50;99.90;;;;;;4960632;28;20037;-85
2023/08/10 10:36:09;;;;;;;6.15;2.15;;;18.50;99.90;;;;;;4975881;28;20383;-85
2023/08/10 10:38:46;;;;;;;2.63;1.60;;;18.50;99.90;;;;;;4959527;28;20030;-87
2023/08/10 10:41:28;;;;;;;3.65;1.80;;;18.40;99.90;;;;;;4979052;28;20046;-86
2023/08/10 10:43:55;;;;;;;6.35;1.90;;;18.30;99.90;;;;;;4964945;28;20053;-85
2023/08/10 10:46:33;;;;;;;4.93;2.03;;;18.30;99.90;;;;;;4978403;28;20045;-85
2023/08/10 10:48:59;;;;;;;5.53;1.90;;;18.40;99.90;;;;;;4975805;28;20128;-86
2023/08/10 10:51:26;;;;;;;9.05;1.83;;;18.40;99.90;;;;;;4975126;28;20092;-85
2023/08/10 10:53:55;;;;;;;3.10;1.40;;;18.40;99.90;;;;;;4975518;28;20038;-86
2023/08/10 10:56:24;;;;;;;3.28;1.60;;;18.50;99.90;;;;;;4992270;28;20117;-85
2023/08/10 10:58:50;;;;;;;3.17;2.00;;;18.50;99.90;;;;;;4977139;28;20078;-85
2023/08/10 11:01:22;;;;;;;7.78;2.25;;;18.50;99.90;;;;;;4973560;28;20164;-86
2023/08/10 11:03:53;;;;;;;5.53;2.10;;;18.50;99.90;;;;;;4973693;28;20033;-85
2023/08/10 11:06:21;;;;;;;4.90;1.58;;;18.50;99.90;;;;;;4990490;28;20191;-84
2023/08/10 11:08:53;;;;;;;6.22;1.90;;;18.40;99.90;;;;;;5005579;28;20387;-84
2023/08/10 11:11:19;;;;;;;4.30;1.30;;;18.40;99.90;;;;;;4990313;28;20072;-84
2023/08/10 11:13:45;;;;;;;4.80;1.90;;;18.30;99.90;;;;;;5007546;28;20042;-83
2023/08/10 11:16:10;;;;;;;4.07;1.70;;;18.30;99.90;;;;;;4985296;28;20065;-83
2023/08/10 11:18:42;;;;;;;3.05;1.38;;;18.30;99.90;;;;;;4994660;28;20434;-84
2023/08/10 11:21:08;;;;;;;3.28;1.60;;;18.30;99.90;;;;;;4994417;28;20052;-84
2023/08/10 11:23:35;;;;;;;3.00;1.25;;;18.30;99.90;;;;;;5010919;28;20081;-84
2023/08/10 11:26:02;;;;;;;2.40;1.35;;;18.30;99.90;;;;;;4993197;28;20336;-85
2023/08/10 11:28:28;;;;;;;1.88;1.25;;;18.30;99.90;;;;;;4989460;28;20034;-85
2023/08/10 11:31:00;;;;;;;2.92;1.50;;;18.30;99.90;;;;;;4974872;28;20558;-85
2023/08/10 11:33:26;;;;;;;1.77;1.48;;;18.30;99.90;;;;;;5009729;28;20042;-85
2023/08/10 11:35:52;;;;;;;2.45;1.50;;;18.30;99.90;;;;;;4992751;28;20038;-85
2023/08/10 11:38:19;;;;;;;2.50;1.77;;;18.30;99.90;;;;;;4978263;28;20089;-85
2023/08/10 11:40:45;;;;;;;2.55;1.40;;;18.30;99.90;;;;;;4994820;28;20411;-85
2023/08/10 11:43:19;;;;;;;2.13;1.55;;;18.30;99.90;;;;;;4997317;28;20045;-84
2023/08/10 11:45:46;;;;;;;3.70;2.00;;;18.30;99.90;;;;;;5010606;28;20160;-84
2023/08/10 11:48:15;;;;;;;4.18;1.67;;;18.30;99.90;;;;;;5010309;28;20038;-84
2023/08/10 11:50:43;;;;;;;2.85;1.50;;;18.30;99.90;;;;;;5011202;28;20037;-85
2023/08/10 11:53:12;;;;;;;2.20;1.63;;;18.40;99.90;;;;;;5011702;28;20042;-85
2023/08/10 11:55:43;;;;;;;5.80;1.90;;;18.40;99.90;;;;;;5010975;28;20121;-85
2023/08/10 11:58:09;;;;;;;3.53;1.60;;;18.50;99.90;;;;;;5007251;28;20049;-85
2023/08/10 12:00:35;;;;;;;12.65;2.05;;;18.50;99.90;;;;;;5010536;28;20096;-84
2023/08/10 12:03:13;;;;;;;10.63;1.90;;;18.60;99.90;;;;;;4977813;28;20025;-84
2023/08/10 12:05:47;;;;;;;3.58;1.80;;;18.70;99.90;;;;;;5027431;28;20122;-84
2023/08/10 12:08:15;;;;;;;5.07;1.70;;;18.70;99.90;;;;;;5011105;28;20038;-84
2023/08/10 12:10:48;;;;;;;4.32;1.98;;;18.80;99.90;;;;;;5010892;28;20041;-85
2023/08/10 12:13:18;;;;;;;3.50;1.83;;;19.00;99.90;;;;;;5010308;28;20411;-85
2023/08/10 12:15:49;;;;;;;3.20;1.77;;;19.10;99.90;;;;;;4992703;28;20108;-84
2023/08/10 12:18:16;;;;;;;5.95;1.80;;;19.20;99.90;;;;;;5007568;28;20479;-84
2023/08/10 12:20:46;;;;;;;3.55;2.30;;;19.20;99.90;;;;;;5026860;28;20390;-84
2023/08/10 12:23:13;;;;;;;3.05;1.90;;;19.20;99.90;;;;;;4994057;28;20048;-84
2023/08/10 12:25:40;;;;;;;2.90;1.80;;;19.20;99.90;;;;;;4994380;28;20100;-84
2023/08/10 12:28:07;;;;;;;5.43;2.25;;;19.20;99.90;;;;;;5009960;28;20053;-85
2023/08/10 12:30:36;;;;;;;6.93;2.08;;;19.20;99.90;;;;;;4994969;28;20103;-85
2023/08/10 12:33:03;;;;;;;4.25;1.98;;;19.10;99.90;;;;;;4990972;28;20241;-85
2023/08/10 12:35:29;;;;;;;7.25;2.40;;;19.00;99.90;;;;;;4993784;28;20044;-85
2023/08/10 12:37:54;;;;;;;6.15;2.45;;;19.10;99.90;;;;;;5014824;28;20045;-86
2023/08/10 12:40:21;;;;;;;5.05;2.35;;;19.20;99.90;;;;;;5014310;28;20048;-85
2023/08/10 12:42:47;;;;;;;3.90;2.40;;;19.30;99.90;;;;;;5014923;28;20057;-86
2023/08/10 12:45:14;;;;;;;5.45;2.20;;;19.20;99.90;;;;;;4997690;28;20041;-85